sensor_id;sensor_type;location;lat;lon;timestamp;pressure;altitude;pressure_sealevel;temperature;humidity
77333;BME280;66408;51.326;12.070;2023-06-22T00:00:51;100979.75;;;21.78;71.78
77333;BME280;66408;51.326;12.070;2023-06-22T00:03:18;100968.69;;;21.78;71.70
77333;BME280;66408;51.326;12.070;2023-06-22T00:05:49;100965.19;;;21.81;71.41
77333;BME280;66408;51.326;12.070;2023-06-22T00:08:16;100967.03;;;21.73;71.26
77333;BME280;66408;51.326;12.070;2023-06-22T00:10:43;100978.28;;;21.65;71.73
77333;BME280;66408;51.326;12.070;2023-06-22T00:13:10;100975.38;;;21.58;72.11
77333;BME280;66408;51.326;12.070;2023-06-22T00:15:39;100976.19;;;21.58;72.12
77333;BME280;66408;51.326;12.070;2023-06-22T00:18:07;100964.22;;;21.54;71.94
77333;BME280;66408;51.326;12.070;2023-06-22T00:20:34;100962.72;;;21.57;72.08
77333;BME280;66408;51.326;12.070;2023-06-22T00:23:04;100973.06;;;21.60;71.87
77333;BME280;66408;51.326;12.070;2023-06-22T00:25:36;100973.56;;;21.65;71.99
77333;BME280;66408;51.326;12.070;2023-06-22T00:28:03;100967.31;;;21.68;71.96
77333;BME280;66408;51.326;12.070;2023-06-22T00:30:31;100963.28;;;21.66;71.78
77333;BME280;66408;51.326;12.070;2023-06-22T00:32:58;100961.28;;;21.63;71.70
77333;BME280;66408;51.326;12.070;2023-06-22T00:35:26;100962.34;;;21.58;71.76
77333;BME280;66408;51.326;12.070;2023-06-22T00:37:56;100963.38;;;21.50;71.36
77333;BME280;66408;51.326;12.070;2023-06-22T00:40:32;100964.88;;;21.47;71.77
77333;BME280;66408;51.326;12.070;2023-06-22T00:42:59;100954.53;;;21.44;72.17
77333;BME280;66408;51.326;12.070;2023-06-22T00:45:26;100954.38;;;21.37;71.66
77333;BME280;66408;51.326;12.070;2023-06-22T00:47:55;100953.75;;;21.28;71.61
77333;BME280;66408;51.326;12.070;2023-06-22T00:50:25;100951.53;;;21.18;72.04
77333;BME280;66408;51.326;12.070;2023-06-22T00:52:57;100952.19;;;21.11;72.44
77333;BME280;66408;51.326;12.070;2023-06-22T00:55:25;100953.50;;;21.02;73.27
77333;BME280;66408;51.326;12.070;2023-06-22T00:57:53;100956.72;;;21.04;72.71
77333;BME280;66408;51.326;12.070;2023-06-22T01:00:24;100963.00;;;21.01;72.36
77333;BME280;66408;51.326;12.070;2023-06-22T01:02:52;100960.28;;;21.04;72.27
77333;BME280;66408;51.326;12.070;2023-06-22T01:05:21;100952.00;;;21.04;72.14
77333;BME280;66408;51.326;12.070;2023-06-22T01:13:05;100953.34;;;20.95;72.71
77333;BME280;66408;51.326;12.070;2023-06-22T01:15:38;100962.00;;;20.93;72.50
77333;BME280;66408;51.326;12.070;2023-06-22T01:18:08;100960.94;;;20.98;72.46
77333;BME280;66408;51.326;12.070;2023-06-22T01:20:36;100958.88;;;20.95;73.03
77333;BME280;66408;51.326;12.070;2023-06-22T01:23:18;100961.13;;;20.89;72.30
77333;BME280;66408;51.326;12.070;2023-06-22T01:25:57;100961.84;;;20.86;72.61
77333;BME280;66408;51.326;12.070;2023-06-22T01:28:42;100966.56;;;20.86;72.68
77333;BME280;66408;51.326;12.070;2023-06-22T01:31:10;100972.09;;;20.86;72.80
77333;BME280;66408;51.326;12.070;2023-06-22T01:33:41;100977.97;;;20.84;72.94
77333;BME280;66408;51.326;12.070;2023-06-22T01:36:09;100961.66;;;20.79;73.29
77333;BME280;66408;51.326;12.070;2023-06-22T01:38:37;100955.78;;;20.80;72.98
77333;BME280;66408;51.326;12.070;2023-06-22T01:41:04;100950.25;;;20.80;73.15
77333;BME280;66408;51.326;12.070;2023-06-22T01:43:32;100947.94;;;20.83;73.13
77333;BME280;66408;51.326;12.070;2023-06-22T01:46:01;100947.94;;;20.83;73.25
77333;BME280;66408;51.326;12.070;2023-06-22T01:48:55;100939.19;;;20.80;73.31
77333;BME280;66408;51.326;12.070;2023-06-22T01:51:22;100933.66;;;20.80;73.59
77333;BME280;66408;51.326;12.070;2023-06-22T01:53:48;100941.06;;;20.76;73.65
77333;BME280;66408;51.326;12.070;2023-06-22T01:56:18;100945.81;;;20.76;73.77
77333;BME280;66408;51.326;12.070;2023-06-22T02:01:32;100949.28;;;20.73;73.65
77333;BME280;66408;51.326;12.070;2023-06-22T02:04:10;100953.09;;;20.68;74.01
77333;BME280;66408;51.326;12.070;2023-06-22T02:06:39;100951.78;;;20.62;74.07
77333;BME280;66408;51.326;12.070;2023-06-22T02:09:18;100950.78;;;20.55;73.87
77333;BME280;66408;51.326;12.070;2023-06-22T02:11:50;100945.19;;;20.51;73.44
77333;BME280;66408;51.326;12.070;2023-06-22T02:14:21;100944.00;;;20.36;73.55
77333;BME280;66408;51.326;12.070;2023-06-22T02:16:50;100941.56;;;20.35;73.69
77333;BME280;66408;51.326;12.070;2023-06-22T02:19:22;100947.91;;;20.35;73.39
77333;BME280;66408;51.326;12.070;2023-06-22T02:21:49;100942.38;;;20.35;73.63
77333;BME280;66408;51.326;12.070;2023-06-22T02:24:16;100951.81;;;20.34;73.58
77333;BME280;66408;51.326;12.070;2023-06-22T02:26:43;100946.53;;;20.29;73.81
77333;BME280;66408;51.326;12.070;2023-06-22T02:29:11;100943.22;;;20.24;73.38
77333;BME280;66408;51.326;12.070;2023-06-22T02:31:38;100929.22;;;20.17;72.91
77333;BME280;66408;51.326;12.070;2023-06-22T02:34:04;100939.28;;;20.09;72.82
77333;BME280;66408;51.326;12.070;2023-06-22T02:36:31;100932.84;;;20.05;72.30
77333;BME280;66408;51.326;12.070;2023-06-22T02:38:59;100930.44;;;20.03;72.85
77333;BME280;66408;51.326;12.070;2023-06-22T02:41:27;100931.50;;;19.99;73.45
77333;BME280;66408;51.326;12.070;2023-06-22T02:43:54;100923.94;;;19.96;73.56
77333;BME280;66408;51.326;12.070;2023-06-22T02:46:20;100926.22;;;19.94;73.26
77333;BME280;66408;51.326;12.070;2023-06-22T02:48:47;100924.97;;;19.91;74.44
77333;BME280;66408;51.326;12.070;2023-06-22T02:51:14;100931.06;;;19.97;74.10
77333;BME280;66408;51.326;12.070;2023-06-22T02:53:41;100934.97;;;19.96;74.01
77333;BME280;66408;51.326;12.070;2023-06-22T02:56:10;100926.94;;;19.91;74.84
77333;BME280;66408;51.326;12.070;2023-06-22T02:58:38;100929.69;;;19.91;74.79
77333;BME280;66408;51.326;12.070;2023-06-22T03:01:05;100937.19;;;19.90;74.47
77333;BME280;66408;51.326;12.070;2023-06-22T03:03:32;100937.44;;;19.85;74.60
77333;BME280;66408;51.326;12.070;2023-06-22T03:05:59;100940.09;;;19.82;74.88
77333;BME280;66408;51.326;12.070;2023-06-22T03:08:28;100925.81;;;19.80;75.16
77333;BME280;66408;51.326;12.070;2023-06-22T03:10:55;100924.22;;;19.79;75.08
77333;BME280;66408;51.326;12.070;2023-06-22T03:13:22;100930.91;;;19.78;74.52
77333;BME280;66408;51.326;12.070;2023-06-22T03:15:49;100926.91;;;19.75;74.12
77333;BME280;66408;51.326;12.070;2023-06-22T03:18:16;100924.50;;;19.73;75.51
77333;BME280;66408;51.326;12.070;2023-06-22T03:20:42;100932.16;;;19.80;75.94
77333;BME280;66408;51.326;12.070;2023-06-22T03:23:09;100935.25;;;19.79;74.59
77333;BME280;66408;51.326;12.070;2023-06-22T03:25:35;100943.53;;;19.79;75.58
77333;BME280;66408;51.326;12.070;2023-06-22T03:28:01;100955.75;;;19.78;75.60
77333;BME280;66408;51.326;12.070;2023-06-22T03:30:40;100966.00;;;19.77;75.94
77333;BME280;66408;51.326;12.070;2023-06-22T03:33:07;100966.41;;;19.79;75.31
77333;BME280;66408;51.326;12.070;2023-06-22T03:35:33;100970.25;;;19.75;75.42
77333;BME280;66408;51.326;12.070;2023-06-22T03:38:00;100972.66;;;19.76;75.60
77333;BME280;66408;51.326;12.070;2023-06-22T03:40:26;100969.91;;;19.76;75.92
77333;BME280;66408;51.326;12.070;2023-06-22T03:42:53;100969.75;;;19.85;75.88
77333;BME280;66408;51.326;12.070;2023-06-22T03:45:20;100982.13;;;19.91;75.83
77333;BME280;66408;51.326;12.070;2023-06-22T03:47:46;100986.50;;;19.92;75.55
77333;BME280;66408;51.326;12.070;2023-06-22T03:50:13;100998.91;;;19.98;75.31
77333;BME280;66408;51.326;12.070;2023-06-22T03:52:41;101006.84;;;19.99;75.64
77333;BME280;66408;51.326;12.070;2023-06-22T03:55:07;101019.16;;;20.02;75.44
77333;BME280;66408;51.326;12.070;2023-06-22T03:57:34;101016.47;;;20.05;76.14
77333;BME280;66408;51.326;12.070;2023-06-22T04:00:00;101029.59;;;20.08;76.32
77333;BME280;66408;51.326;12.070;2023-06-22T04:02:27;101031.66;;;20.12;76.39
77333;BME280;66408;51.326;12.070;2023-06-22T04:04:54;101045.44;;;20.24;76.48
77333;BME280;66408;51.326;12.070;2023-06-22T04:07:20;101050.78;;;20.32;76.43
77333;BME280;66408;51.326;12.070;2023-06-22T04:09:47;101047.91;;;20.41;76.75
77333;BME280;66408;51.326;12.070;2023-06-22T04:12:14;101053.19;;;20.46;76.61
77333;BME280;66408;51.326;12.070;2023-06-22T04:14:43;101060.09;;;20.40;76.97
77333;BME280;66408;51.326;12.070;2023-06-22T04:17:09;101050.53;;;20.50;76.58
77333;BME280;66408;51.326;12.070;2023-06-22T04:19:36;101047.03;;;20.53;76.40
77333;BME280;66408;51.326;12.070;2023-06-22T04:22:02;101055.53;;;20.60;76.76
77333;BME280;66408;51.326;12.070;2023-06-22T04:24:29;101052.78;;;20.60;76.77
77333;BME280;66408;51.326;12.070;2023-06-22T04:26:56;101056.06;;;20.65;76.78
77333;BME280;66408;51.326;12.070;2023-06-22T04:29:22;101061.69;;;20.69;76.67
77333;BME280;66408;51.326;12.070;2023-06-22T04:31:58;101048.44;;;20.74;76.27
77333;BME280;66408;51.326;12.070;2023-06-22T04:34:29;101054.84;;;20.78;76.65
77333;BME280;66408;51.326;12.070;2023-06-22T04:36:55;101057.44;;;20.87;76.18
77333;BME280;66408;51.326;12.070;2023-06-22T04:39:23;101044.34;;;21.00;75.63
77333;BME280;66408;51.326;12.070;2023-06-22T04:41:50;101041.84;;;21.10;75.82
77333;BME280;66408;51.326;12.070;2023-06-22T04:44:19;101030.50;;;21.15;75.40
77333;BME280;66408;51.326;12.070;2023-06-22T04:46:56;101024.09;;;21.27;75.11
77333;BME280;66408;51.326;12.070;2023-06-22T04:49:35;101012.03;;;21.35;75.38
77333;BME280;66408;51.326;12.070;2023-06-22T04:52:08;101011.22;;;21.50;75.11
77333;BME280;66408;51.326;12.070;2023-06-22T04:54:36;101006.72;;;21.62;74.70
77333;BME280;66408;51.326;12.070;2023-06-22T04:57:05;100995.06;;;21.72;74.64
77333;BME280;66408;51.326;12.070;2023-06-22T04:59:37;100996.47;;;21.81;74.33
77333;BME280;66408;51.326;12.070;2023-06-22T05:02:05;100989.41;;;21.84;74.82
77333;BME280;66408;51.326;12.070;2023-06-22T05:04:32;100971.84;;;21.96;74.43
77333;BME280;66408;51.326;12.070;2023-06-22T05:07:02;100962.97;;;22.06;74.37
77333;BME280;66408;51.326;12.070;2023-06-22T05:09:29;100954.16;;;22.00;73.65
77333;BME280;66408;51.326;12.070;2023-06-22T05:11:55;100943.34;;;21.95;73.73
77333;BME280;66408;51.326;12.070;2023-06-22T05:14:26;100944.66;;;22.01;74.28
77333;BME280;66408;51.326;12.070;2023-06-22T05:16:52;100930.97;;;22.08;74.55
77333;BME280;66408;51.326;12.070;2023-06-22T05:19:19;100931.44;;;22.14;74.38
77333;BME280;66408;51.326;12.070;2023-06-22T05:21:45;100927.66;;;22.22;74.07
77333;BME280;66408;51.326;12.070;2023-06-22T05:24:12;100909.13;;;22.26;74.10
77333;BME280;66408;51.326;12.070;2023-06-22T05:26:39;100900.25;;;22.40;73.18
77333;BME280;66408;51.326;12.070;2023-06-22T05:29:05;100901.22;;;22.51;72.46
77333;BME280;66408;51.326;12.070;2023-06-22T05:31:33;100914.66;;;22.72;71.90
77333;BME280;66408;51.326;12.070;2023-06-22T05:34:00;100916.13;;;22.88;71.15
77333;BME280;66408;51.326;12.070;2023-06-22T05:36:27;100914.00;;;23.05;70.19
77333;BME280;66408;51.326;12.070;2023-06-22T05:38:56;100902.75;;;23.20;69.77
77333;BME280;66408;51.326;12.070;2023-06-22T05:41:23;100900.44;;;23.26;69.67
77333;BME280;66408;51.326;12.070;2023-06-22T05:43:49;100897.56;;;23.19;69.82
77333;BME280;66408;51.326;12.070;2023-06-22T05:46:16;100883.97;;;23.10;70.10
77333;BME280;66408;51.326;12.070;2023-06-22T05:48:43;100889.47;;;23.07;70.39
77333;BME280;66408;51.326;12.070;2023-06-22T05:51:13;100880.41;;;23.10;70.65
77333;BME280;66408;51.326;12.070;2023-06-22T05:53:39;100886.53;;;23.22;70.48
77333;BME280;66408;51.326;12.070;2023-06-22T05:56:06;100889.81;;;23.32;70.28
77333;BME280;66408;51.326;12.070;2023-06-22T05:58:33;100886.31;;;23.38;69.88
77333;BME280;66408;51.326;12.070;2023-06-22T06:00:59;100886.75;;;23.40;69.98
77333;BME280;66408;51.326;12.070;2023-06-22T06:03:27;100898.66;;;23.41;69.39
77333;BME280;66408;51.326;12.070;2023-06-22T06:05:55;100900.78;;;23.51;69.37
77333;BME280;66408;51.326;12.070;2023-06-22T06:08:21;100895.47;;;23.69;69.04
77333;BME280;66408;51.326;12.070;2023-06-22T06:10:48;100909.09;;;23.81;68.60
77333;BME280;66408;51.326;12.070;2023-06-22T06:13:15;100911.50;;;23.82;68.51
77333;BME280;66408;51.326;12.070;2023-06-22T06:15:41;100917.63;;;23.98;68.11
77333;BME280;66408;51.326;12.070;2023-06-22T06:18:08;100921.66;;;24.05;67.57
77333;BME280;66408;51.326;12.070;2023-06-22T06:20:34;100925.59;;;24.00;67.67
77333;BME280;66408;51.326;12.070;2023-06-22T06:23:01;100932.34;;;24.03;67.59
77333;BME280;66408;51.326;12.070;2023-06-22T06:25:28;100939.63;;;24.14;67.39
77333;BME280;66408;51.326;12.070;2023-06-22T06:27:54;100936.09;;;24.17;67.13
77333;BME280;66408;51.326;12.070;2023-06-22T06:30:21;100941.78;;;24.28;66.64
77333;BME280;66408;51.326;12.070;2023-06-22T06:32:49;100941.84;;;24.31;65.84
77333;BME280;66408;51.326;12.070;2023-06-22T06:35:16;100936.75;;;24.41;65.86
77333;BME280;66408;51.326;12.070;2023-06-22T06:37:45;100941.22;;;24.52;65.70
77333;BME280;66408;51.326;12.070;2023-06-22T06:40:13;100930.28;;;24.70;65.27
77333;BME280;66408;51.326;12.070;2023-06-22T06:42:48;100928.38;;;24.81;64.40
77333;BME280;66408;51.326;12.070;2023-06-22T06:45:18;100927.34;;;24.96;64.17
77333;BME280;66408;51.326;12.070;2023-06-22T06:47:45;100929.75;;;25.01;63.27
77333;BME280;66408;51.326;12.070;2023-06-22T06:50:12;100936.97;;;25.10;63.08
77333;BME280;66408;51.326;12.070;2023-06-22T06:52:39;100941.03;;;25.26;61.60
77333;BME280;66408;51.326;12.070;2023-06-22T06:55:07;100939.03;;;25.27;61.57
77333;BME280;66408;51.326;12.070;2023-06-22T06:57:34;100939.47;;;25.29;60.65
77333;BME280;66408;51.326;12.070;2023-06-22T07:00:01;100939.09;;;25.34;60.41
77333;BME280;66408;51.326;12.070;2023-06-22T07:02:28;100942.75;;;25.49;59.74
77333;BME280;66408;51.326;12.070;2023-06-22T07:04:55;100940.81;;;25.56;59.88
77333;BME280;66408;51.326;12.070;2023-06-22T07:07:22;100946.47;;;25.74;59.33
77333;BME280;66408;51.326;12.070;2023-06-22T07:09:48;100936.59;;;25.91;59.27
77333;BME280;66408;51.326;12.070;2023-06-22T07:12:15;100941.44;;;26.15;58.32
77333;BME280;66408;51.326;12.070;2023-06-22T07:14:42;100936.69;;;26.19;57.19
77333;BME280;66408;51.326;12.070;2023-06-22T07:17:08;100945.50;;;26.39;56.58
77333;BME280;66408;51.326;12.070;2023-06-22T07:19:35;100950.31;;;26.56;56.10
77333;BME280;66408;51.326;12.070;2023-06-22T07:22:01;100947.91;;;26.83;55.59
77333;BME280;66408;51.326;12.070;2023-06-22T07:24:28;100941.16;;;27.05;55.91
77333;BME280;66408;51.326;12.070;2023-06-22T07:26:54;100933.94;;;27.26;55.49
77333;BME280;66408;51.326;12.070;2023-06-22T07:29:21;100931.13;;;27.26;54.38
77333;BME280;66408;51.326;12.070;2023-06-22T07:31:49;100924.81;;;27.07;54.84
77333;BME280;66408;51.326;12.070;2023-06-22T07:34:17;100921.59;;;27.09;54.82
77333;BME280;66408;51.326;12.070;2023-06-22T07:36:45;100923.16;;;27.21;54.49
77333;BME280;66408;51.326;12.070;2023-06-22T07:39:12;100916.72;;;27.34;54.42
77333;BME280;66408;51.326;12.070;2023-06-22T07:41:39;100926.28;;;27.51;53.77
77333;BME280;66408;51.326;12.070;2023-06-22T07:44:07;100924.19;;;27.76;52.89
77333;BME280;66408;51.326;12.070;2023-06-22T07:46:33;100924.50;;;27.96;51.61
77333;BME280;66408;51.326;12.070;2023-06-22T07:49:00;100922.41;;;28.07;51.86
77333;BME280;66408;51.326;12.070;2023-06-22T07:51:27;100919.63;;;28.11;50.86
77333;BME280;66408;51.326;12.070;2023-06-22T07:53:54;100917.59;;;28.15;51.10
77333;BME280;66408;51.326;12.070;2023-06-22T07:56:20;100910.00;;;28.19;50.80
77333;BME280;66408;51.326;12.070;2023-06-22T07:58:47;100913.19;;;28.21;49.22
77333;BME280;66408;51.326;12.070;2023-06-22T08:01:14;100908.19;;;28.50;50.09
77333;BME280;66408;51.326;12.070;2023-06-22T08:03:41;100900.84;;;28.67;48.18
77333;BME280;66408;51.326;12.070;2023-06-22T08:06:08;100898.50;;;28.58;47.58
77333;BME280;66408;51.326;12.070;2023-06-22T08:08:36;100899.19;;;28.73;47.99
77333;BME280;66408;51.326;12.070;2023-06-22T08:11:03;100891.13;;;28.82;47.86
77333;BME280;66408;51.326;12.070;2023-06-22T08:13:29;100888.13;;;29.03;47.49
77333;BME280;66408;51.326;12.070;2023-06-22T08:15:56;100893.19;;;29.15;47.50
77333;BME280;66408;51.326;12.070;2023-06-22T08:18:23;100891.34;;;29.39;45.81
77333;BME280;66408;51.326;12.070;2023-06-22T08:20:49;100881.31;;;29.72;46.17
77333;BME280;66408;51.326;12.070;2023-06-22T08:23:16;100893.53;;;30.16;44.92
77333;BME280;66408;51.326;12.070;2023-06-22T08:25:43;100887.06;;;30.19;44.57
77333;BME280;66408;51.326;12.070;2023-06-22T08:28:09;100891.00;;;29.94;44.48
77333;BME280;66408;51.326;12.070;2023-06-22T08:30:36;100885.56;;;29.84;45.28
77333;BME280;66408;51.326;12.070;2023-06-22T08:33:02;100889.78;;;29.99;44.97
77333;BME280;66408;51.326;12.070;2023-06-22T08:35:29;100885.00;;;29.96;44.95
77333;BME280;66408;51.326;12.070;2023-06-22T08:37:56;100886.03;;;29.79;44.06
77333;BME280;66408;51.326;12.070;2023-06-22T08:40:24;100889.19;;;29.81;44.40
77333;BME280;66408;51.326;12.070;2023-06-22T08:42:51;100885.63;;;30.07;43.97
77333;BME280;66408;51.326;12.070;2023-06-22T08:45:18;100883.59;;;30.11;43.16
77333;BME280;66408;51.326;12.070;2023-06-22T08:47:44;100882.03;;;30.07;43.08
77333;BME280;66408;51.326;12.070;2023-06-22T08:50:11;100877.44;;;30.20;43.46
77333;BME280;66408;51.326;12.070;2023-06-22T08:52:39;100881.78;;;30.48;43.27
77333;BME280;66408;51.326;12.070;2023-06-22T08:55:08;100880.22;;;30.70;41.45
77333;BME280;66408;51.326;12.070;2023-06-22T08:57:35;100887.25;;;30.58;40.63
77333;BME280;66408;51.326;12.070;2023-06-22T09:00:08;100875.09;;;30.88;40.83
77333;BME280;66408;51.326;12.070;2023-06-22T09:02:42;100869.75;;;31.17;40.32
77333;BME280;66408;51.326;12.070;2023-06-22T09:05:09;100874.28;;;31.31;40.06
77333;BME280;66408;51.326;12.070;2023-06-22T09:07:36;100871.19;;;31.45;39.41
77333;BME280;66408;51.326;12.070;2023-06-22T09:10:04;100872.25;;;31.71;39.35
77333;BME280;66408;51.326;12.070;2023-06-22T09:12:33;100870.97;;;31.92;38.34
77333;BME280;66408;51.326;12.070;2023-06-22T09:15:00;100863.31;;;31.76;37.61
77333;BME280;66408;51.326;12.070;2023-06-22T09:17:27;100849.69;;;31.74;38.39
77333;BME280;66408;51.326;12.070;2023-06-22T09:19:54;100844.78;;;31.59;38.52
77333;BME280;66408;51.326;12.070;2023-06-22T09:22:20;100848.31;;;31.43;38.97
77333;BME280;66408;51.326;12.070;2023-06-22T09:24:47;100846.19;;;31.11;39.57
77333;BME280;66408;51.326;12.070;2023-06-22T09:27:13;100850.94;;;30.71;39.88
77333;BME280;66408;51.326;12.070;2023-06-22T09:29:40;100846.84;;;30.76;40.68
77333;BME280;66408;51.326;12.070;2023-06-22T09:32:07;100845.63;;;30.96;40.50
77333;BME280;66408;51.326;12.070;2023-06-22T09:34:33;100835.22;;;31.17;39.29
77333;BME280;66408;51.326;12.070;2023-06-22T09:37:00;100827.19;;;31.55;38.82
77333;BME280;66408;51.326;12.070;2023-06-22T09:39:29;100833.78;;;31.84;36.73
77333;BME280;66408;51.326;12.070;2023-06-22T09:41:58;100831.69;;;31.52;36.12
77333;BME280;66408;51.326;12.070;2023-06-22T09:44:25;100839.81;;;31.07;37.90
77333;BME280;66408;51.326;12.070;2023-06-22T09:46:52;100823.44;;;30.82;38.86
77333;BME280;66408;51.326;12.070;2023-06-22T09:49:19;100824.59;;;30.85;39.25
77333;BME280;66408;51.326;12.070;2023-06-22T09:52:05;100822.44;;;30.92;39.60
77333;BME280;66408;51.326;12.070;2023-06-22T09:54:32;100829.09;;;31.02;37.82
77333;BME280;66408;51.326;12.070;2023-06-22T09:57:02;100820.88;;;31.51;37.66
77333;BME280;66408;51.326;12.070;2023-06-22T10:00:08;100813.25;;;32.36;36.32
77333;BME280;66408;51.326;12.070;2023-06-22T10:02:41;100804.94;;;33.19;33.77
77333;BME280;66408;51.326;12.070;2023-06-22T10:05:08;100803.34;;;33.60;32.81
77333;BME280;66408;51.326;12.070;2023-06-22T10:07:35;100800.31;;;33.92;31.17
77333;BME280;66408;51.326;12.070;2023-06-22T10:10:06;100794.41;;;34.24;31.64
77333;BME280;66408;51.326;12.070;2023-06-22T10:12:33;100797.41;;;34.43;31.12
77333;BME280;66408;51.326;12.070;2023-06-22T10:15:00;100790.44;;;34.69;31.87
77333;BME280;66408;51.326;12.070;2023-06-22T10:17:27;100782.50;;;34.42;31.66
77333;BME280;66408;51.326;12.070;2023-06-22T10:19:53;100782.63;;;34.73;31.18
77333;BME280;66408;51.326;12.070;2023-06-22T10:22:20;100781.00;;;34.50;31.05
77333;BME280;66408;51.326;12.070;2023-06-22T10:24:46;100783.50;;;34.48;31.14
77333;BME280;66408;51.326;12.070;2023-06-22T10:27:13;100779.38;;;34.15;31.56
77333;BME280;66408;51.326;12.070;2023-06-22T10:29:41;100777.84;;;34.48;31.16
77333;BME280;66408;51.326;12.070;2023-06-22T10:32:08;100773.78;;;34.49;30.36
77333;BME280;66408;51.326;12.070;2023-06-22T10:34:34;100771.31;;;34.39;30.75
77333;BME280;66408;51.326;12.070;2023-06-22T10:37:01;100778.16;;;34.50;30.72
77333;BME280;66408;51.326;12.070;2023-06-22T10:39:27;100771.00;;;34.24;30.37
77333;BME280;66408;51.326;12.070;2023-06-22T10:41:54;100762.44;;;34.28;31.18
77333;BME280;66408;51.326;12.070;2023-06-22T10:44:22;100768.41;;;34.30;30.89
77333;BME280;66408;51.326;12.070;2023-06-22T10:46:48;100754.13;;;34.46;30.95
77333;BME280;66408;51.326;12.070;2023-06-22T10:49:15;100760.38;;;34.63;30.15
77333;BME280;66408;51.326;12.070;2023-06-22T10:51:41;100753.16;;;34.62;30.77
77333;BME280;66408;51.326;12.070;2023-06-22T10:54:08;100763.38;;;34.81;30.58
77333;BME280;66408;51.326;12.070;2023-06-22T10:56:34;100744.97;;;34.98;29.95
77333;BME280;66408;51.326;12.070;2023-06-22T10:59:01;100742.69;;;35.15;29.96
77333;BME280;66408;51.326;12.070;2023-06-22T11:01:28;100741.28;;;35.10;29.85
77333;BME280;66408;51.326;12.070;2023-06-22T11:04:02;100730.44;;;35.09;29.53
77333;BME280;66408;51.326;12.070;2023-06-22T11:06:29;100736.63;;;34.94;29.55
77333;BME280;66408;51.326;12.070;2023-06-22T11:08:56;100730.91;;;34.85;30.04
77333;BME280;66408;51.326;12.070;2023-06-22T11:11:32;100728.84;;;35.39;29.57
77333;BME280;66408;51.326;12.070;2023-06-22T11:13:58;100732.34;;;35.83;29.14
77333;BME280;66408;51.326;12.070;2023-06-22T11:16:25;100718.56;;;36.49;28.61
77333;BME280;66408;51.326;12.070;2023-06-22T11:18:51;100720.91;;;36.87;27.77
77333;BME280;66408;51.326;12.070;2023-06-22T11:21:18;100715.22;;;36.87;27.00
77333;BME280;66408;51.326;12.070;2023-06-22T11:23:45;100714.44;;;36.95;27.49
77333;BME280;66408;51.326;12.070;2023-06-22T11:26:11;100714.97;;;37.27;27.39
77333;BME280;66408;51.326;12.070;2023-06-22T11:28:38;100712.31;;;37.14;27.16
77333;BME280;66408;51.326;12.070;2023-06-22T11:31:04;100721.41;;;36.76;27.79
77333;BME280;66408;51.326;12.070;2023-06-22T11:33:51;100709.56;;;36.87;28.14
77333;BME280;66408;51.326;12.070;2023-06-22T11:36:18;100708.75;;;37.04;27.35
77333;BME280;66408;51.326;12.070;2023-06-22T11:38:45;100706.59;;;36.81;28.02
77333;BME280;66408;51.326;12.070;2023-06-22T11:41:11;100704.25;;;36.71;27.88
77333;BME280;66408;51.326;12.070;2023-06-22T11:43:38;100698.09;;;36.81;27.65
77333;BME280;66408;51.326;12.070;2023-06-22T11:46:05;100691.81;;;36.59;27.47
77333;BME280;66408;51.326;12.070;2023-06-22T11:48:32;100700.47;;;36.55;29.05
77333;BME280;66408;51.326;12.070;2023-06-22T11:51:00;100698.09;;;36.54;28.42
77333;BME280;66408;51.326;12.070;2023-06-22T11:53:29;100688.34;;;36.27;29.05
77333;BME280;66408;51.326;12.070;2023-06-22T11:55:56;100682.06;;;36.32;28.97
77333;BME280;66408;51.326;12.070;2023-06-22T11:58:22;100681.88;;;36.18;29.00
77333;BME280;66408;51.326;12.070;2023-06-22T12:00:49;100681.88;;;35.99;28.96
77333;BME280;66408;51.326;12.070;2023-06-22T12:03:18;100673.59;;;35.25;30.50
77333;BME280;66408;51.326;12.070;2023-06-22T12:05:45;100651.53;;;35.42;30.36
77333;BME280;66408;51.326;12.070;2023-06-22T12:08:12;100647.34;;;35.15;31.08
77333;BME280;66408;51.326;12.070;2023-06-22T12:10:40;100651.41;;;35.54;30.38
77333;BME280;66408;51.326;12.070;2023-06-22T12:13:06;100641.88;;;35.70;30.76
77333;BME280;66408;51.326;12.070;2023-06-22T12:15:33;100635.78;;;36.08;29.92
77333;BME280;66408;51.326;12.070;2023-06-22T12:17:59;100640.84;;;36.22;29.88
77333;BME280;66408;51.326;12.070;2023-06-22T12:20:27;100635.16;;;36.31;30.02
77333;BME280;66408;51.326;12.070;2023-06-22T12:22:54;100630.13;;;36.08;29.87
77333;BME280;66408;51.326;12.070;2023-06-22T12:25:22;100632.94;;;35.81;29.89
77333;BME280;66408;51.326;12.070;2023-06-22T12:27:49;100622.25;;;35.94;30.23
77333;BME280;66408;51.326;12.070;2023-06-22T12:30:16;100616.75;;;35.81;30.17
77333;BME280;66408;51.326;12.070;2023-06-22T12:32:43;100621.88;;;35.74;30.38
77333;BME280;66408;51.326;12.070;2023-06-22T12:35:09;100613.72;;;35.08;31.29
77333;BME280;66408;51.326;12.070;2023-06-22T12:37:41;100613.81;;;34.43;32.19
77333;BME280;66408;51.326;12.070;2023-06-22T12:40:09;100605.28;;;34.34;32.88
77333;BME280;66408;51.326;12.070;2023-06-22T12:42:36;100606.97;;;34.53;32.29
77333;BME280;66408;51.326;12.070;2023-06-22T12:45:03;100608.13;;;34.65;32.13
77333;BME280;66408;51.326;12.070;2023-06-22T12:47:30;100605.75;;;34.63;32.14
77333;BME280;66408;51.326;12.070;2023-06-22T12:49:57;100611.28;;;34.01;32.63
77333;BME280;66408;51.326;12.070;2023-06-22T12:52:24;100601.44;;;33.71;32.82